createdAt,value
2023-04-25T00:00:35.751Z,99981.47
2023-04-25T00:02:37.929Z,99987.47
2023-04-25T00:04:40.056Z,99988.38
2023-04-25T00:06:41.969Z,99980.78
2023-04-25T00:08:43.547Z,99982.97
2023-04-25T00:10:45.511Z,99980.59
2023-04-25T00:12:47.122Z,99981.50
2023-04-25T00:14:50.148Z,99981.31
2023-04-25T00:16:51.916Z,99975.09
2023-04-25T00:18:53.394Z,99979.59
2023-04-25T00:20:55.501Z,99971.19
2023-04-25T00:22:57.116Z,99976.19
2023-04-25T00:24:58.754Z,99980.31
2023-04-25T00:27:00.577Z,99982.03
2023-04-25T00:29:02.306Z,99981.34
2023-04-25T00:31:05.407Z,99983.06
2023-04-25T00:33:07.298Z,99978.56
2023-04-25T00:35:10.591Z,99979.03
2023-04-25T00:37:12.293Z,99978.84
2023-04-25T00:39:13.874Z,99979.03
2023-04-25T00:41:15.845Z,99975.25
2023-04-25T00:43:17.359Z,99972.34
2023-04-25T00:45:19.317Z,99972.03
2023-04-25T00:47:22.493Z,99971.56
2023-04-25T00:49:24.113Z,99965.44
2023-04-25T00:51:26.528Z,99968.69
2023-04-25T00:53:29.385Z,99967.00
2023-04-25T00:55:31.291Z,99971.28
2023-04-25T00:57:33.052Z,99958.69
2023-04-25T00:59:35.051Z,99954.81
2023-04-25T01:01:36.914Z,99958.19
2023-04-25T01:03:40.889Z,99957.88
2023-04-25T01:05:43.292Z,99953.78
2023-04-25T01:07:45.102Z,99944.75
2023-04-25T01:09:47.055Z,99944.69
2023-04-25T01:11:49.394Z,99941.72
2023-04-25T01:13:51.299Z,99940.63
2023-04-25T01:15:53.289Z,99940.75
2023-04-25T01:17:55.335Z,99946.53
2023-04-25T01:19:58.421Z,99945.94
2023-04-25T01:22:01.745Z,99948.44
2023-04-25T01:24:03.784Z,99946.72
2023-04-25T01:26:06.856Z,99941.81
2023-04-25T01:28:08.883Z,99942.72
2023-04-25T01:30:10.958Z,99937.81
2023-04-25T01:32:13.454Z,99939.22
2023-04-25T01:34:15.198Z,99951.53
2023-04-25T01:36:17.203Z,99946.28
2023-04-25T01:38:20.589Z,99938.19
2023-04-25T01:40:23.136Z,99948.41
2023-04-25T01:42:24.916Z,99947.28
2023-04-25T01:44:26.667Z,99940.47
2023-04-25T01:46:29.127Z,99946.66
2023-04-25T01:48:30.721Z,99948.41
2023-04-25T01:50:32.475Z,99948.63
2023-04-25T01:52:34.149Z,99947.63
2023-04-25T01:54:37.155Z,99951.34
2023-04-25T01:56:39.954Z,99950.53
2023-04-25T01:58:41.625Z,99951.75
2023-04-25T02:00:43.489Z,99956.00
2023-04-25T02:02:45.247Z,99961.50
2023-04-25T02:04:47.074Z,99956.31
2023-04-25T02:06:48.780Z,99966.63
2023-04-25T02:08:50.426Z,99962.75
2023-04-25T02:10:53.553Z,99960.66
2023-04-25T02:12:55.137Z,99956.44
2023-04-25T02:14:56.770Z,99958.75
2023-04-25T02:16:58.554Z,99960.94
2023-04-25T02:19:00.274Z,99958.47
2023-04-25T02:21:01.882Z,99952.47
2023-04-25T02:23:03.663Z,99952.47
2023-04-25T02:25:06.253Z,99951.03
2023-04-25T02:27:09.325Z,99956.03
2023-04-25T02:29:11.282Z,99953.66
2023-04-25T02:31:12.982Z,99943.75
2023-04-25T02:33:14.559Z,99947.66
2023-04-25T02:35:16.293Z,99945.25
2023-04-25T02:37:17.959Z,99940.84
2023-04-25T02:39:19.626Z,99950.66
2023-04-25T02:41:21.198Z,99949.84
2023-04-25T02:43:24.302Z,99951.66
2023-04-25T02:45:25.921Z,99945.53
2023-04-25T02:47:27.609Z,99941.25
2023-04-25T02:49:29.223Z,99938.63
2023-04-25T02:51:30.814Z,99937.34
2023-04-25T02:53:32.431Z,99935.44
2023-04-25T02:55:34.168Z,99936.75
2023-04-25T02:57:35.753Z,99941.06
2023-04-25T02:59:38.784Z,99940.41
2023-04-25T03:01:40.351Z,99944.72
2023-04-25T03:03:41.981Z,99943.53
2023-04-25T03:05:43.820Z,99936.66
2023-04-25T03:07:45.772Z,99936.97
2023-04-25T03:09:47.505Z,99938.56
2023-04-25T03:11:49.178Z,99934.22
2023-04-25T03:13:50.958Z,99933.63
2023-04-25T03:15:54.066Z,99932.31
2023-04-25T03:17:55.770Z,99928.91
2023-04-25T03:19:58.167Z,99931.94
2023-04-25T03:21:59.822Z,99926.91
2023-04-25T03:24:02.777Z,99931.03
2023-04-25T03:26:04.388Z,99930.53
2023-04-25T03:28:05.991Z,99934.03
2023-04-25T03:30:08.696Z,99927.22
2023-04-25T03:32:11.724Z,99927.72
2023-04-25T03:34:13.297Z,99929.94
2023-04-25T03:36:15.210Z,99928.00
2023-04-25T03:38:16.929Z,99928.22
2023-04-25T03:40:21.027Z,99931.22
2023-04-25T03:42:23.004Z,99936.84
2023-04-25T03:44:24.884Z,99935.13
2023-04-25T03:46:26.744Z,99932.03
2023-04-25T03:48:30.229Z,99931.25
2023-04-25T03:50:31.842Z,99933.63
2023-04-25T03:52:33.375Z,99933.16
2023-04-25T03:54:34.999Z,99932.44
2023-04-25T03:56:36.585Z,99930.94
2023-04-25T03:58:38.166Z,99928.72
2023-04-25T04:00:39.958Z,99939.75
2023-04-25T04:02:43.954Z,99940.53
2023-04-25T04:04:48.496Z,99944.06
2023-04-25T04:06:50.541Z,99948.94
2023-04-25T04:08:52.149Z,99948.06
2023-04-25T04:10:53.903Z,99951.47
2023-04-25T04:12:55.701Z,99945.44
2023-04-25T04:14:57.439Z,99945.25
2023-04-25T04:16:59.251Z,99945.81
2023-04-25T04:19:00.924Z,99943.63
2023-04-25T04:21:04.253Z,99942.56
2023-04-25T04:23:06.173Z,99943.38
2023-04-25T04:25:08.694Z,99942.94
2023-04-25T04:27:10.385Z,99947.25
2023-04-25T04:29:12.081Z,99950.25
2023-04-25T04:31:14.085Z,99957.44
2023-04-25T04:33:15.642Z,99956.25
2023-04-25T04:35:17.381Z,99954.25
2023-04-25T04:37:20.532Z,99954.25
2023-04-25T04:39:22.240Z,99957.66
2023-04-25T04:41:24.015Z,99955.16
2023-04-25T04:43:25.598Z,99955.25
2023-04-25T04:45:27.189Z,99957.84
2023-04-25T04:47:28.877Z,99961.34
2023-04-25T04:49:30.546Z,99961.25
2023-04-25T04:51:32.191Z,99962.66
2023-04-25T04:53:35.179Z,99964.47
2023-04-25T04:55:37.064Z,99973.88
2023-04-25T04:57:38.640Z,99971.75
2023-04-25T04:59:40.224Z,99969.25
2023-04-25T05:01:42.046Z,99978.06
2023-04-25T05:03:43.816Z,99976.06
2023-04-25T05:05:45.555Z,99979.16
2023-04-25T05:07:47.162Z,99981.28
2023-04-25T05:09:50.484Z,99982.56
2023-04-25T05:11:52.101Z,99982.19
2023-04-25T05:13:54.171Z,99986.44
2023-04-25T05:15:55.771Z,99988.97
2023-04-25T05:17:57.609Z,99989.88
2023-04-25T05:20:00.065Z,99988.50
2023-04-25T05:22:01.725Z,99986.47
2023-04-25T05:24:03.523Z,99994.47
2023-04-25T05:26:08.057Z,99987.97
2023-04-25T05:28:09.601Z,99986.47
2023-04-25T05:30:11.595Z,99987.97
2023-04-25T05:32:13.318Z,99988.50
2023-04-25T05:34:14.997Z,99987.91
2023-04-25T05:36:16.541Z,99994.09
2023-04-25T05:38:18.168Z,99990.97
2023-04-25T05:40:19.709Z,99989.06
2023-04-25T05:42:22.730Z,99988.59
2023-04-25T05:44:24.316Z,99998.38
2023-04-25T05:46:26.019Z,99990.06
2023-04-25T05:48:27.683Z,99997.09
2023-04-25T05:50:29.341Z,99995.09
2023-04-25T05:52:30.897Z,99998.69
2023-04-25T05:54:32.498Z,99998.78
2023-04-25T05:56:34.062Z,100003.16
2023-04-25T05:58:37.013Z,100001.66
2023-04-25T06:00:38.658Z,100007.88
2023-04-25T06:02:40.455Z,100004.69
2023-04-25T06:04:42.289Z,100004.50
2023-04-25T06:06:43.945Z,100005.59
2023-04-25T06:08:45.493Z,100006.88
2023-04-25T06:10:47.053Z,100011.38
2023-04-25T06:12:48.720Z,100009.50
2023-04-25T06:14:51.678Z,100008.59
2023-04-25T06:16:53.242Z,100012.38
2023-04-25T06:18:54.856Z,100013.28
2023-04-25T06:20:56.521Z,100017.28
2023-04-25T06:22:58.125Z,100016.97
2023-04-25T06:24:59.675Z,100013.69
2023-04-25T06:27:01.227Z,100010.66
2023-04-25T06:29:02.939Z,100011.19
2023-04-25T06:31:06.150Z,100018.22
2023-04-25T06:33:07.877Z,100021.72
2023-04-25T06:35:09.948Z,100023.53
2023-04-25T06:37:11.556Z,100023.03
2023-04-25T06:39:13.110Z,100023.03
2023-04-25T06:41:14.811Z,100021.72
2023-04-25T06:43:16.339Z,100028.50
2023-04-25T06:45:18.038Z,100030.91
2023-04-25T06:47:20.981Z,100037.63
2023-04-25T06:49:22.547Z,100040.69
2023-04-25T06:51:24.452Z,100038.78
2023-04-25T06:53:26.123Z,100032.59
2023-04-25T06:55:27.686Z,100033.69
2023-04-25T06:57:29.264Z,100041.22
2023-04-25T06:59:30.810Z,100041.00
2023-04-25T07:01:32.390Z,100041.50
2023-04-25T07:03:35.505Z,100048.03
2023-04-25T07:05:37.208Z,100054.81
2023-04-25T07:07:38.795Z,100046.50
2023-04-25T07:09:40.330Z,100043.00
2023-04-25T07:11:42.105Z,100051.81
2023-04-25T07:13:43.654Z,100056.91
2023-04-25T07:15:45.283Z,100049.13
2023-04-25T07:17:46.890Z,100057.09
2023-04-25T07:19:50.177Z,100050.63
2023-04-25T07:21:54.067Z,100050.91
2023-04-25T07:23:55.786Z,100055.00
2023-04-25T07:25:57.339Z,100056.72
2023-04-25T07:27:59.030Z,100054.00
2023-04-25T07:30:00.623Z,100054.81
2023-04-25T07:32:02.322Z,100057.41
2023-04-25T07:34:04.001Z,100053.69
2023-04-25T07:36:08.194Z,100057.81
2023-04-25T07:38:09.799Z,100074.22
2023-04-25T07:40:12.034Z,100071.81
2023-04-25T07:42:13.897Z,100075.44
2023-04-25T07:44:15.492Z,100075.91
2023-04-25T07:46:17.504Z,100072.94
2023-04-25T07:48:19.211Z,100080.72
2023-04-25T07:50:20.752Z,100083.94
2023-04-25T07:52:23.725Z,100076.22
2023-04-25T07:54:25.279Z,100088.63
2023-04-25T07:56:26.812Z,100085.94
2023-04-25T07:58:28.371Z,100080.53
2023-04-25T08:00:30.011Z,100090.31
2023-04-25T08:02:31.587Z,100084.72
2023-04-25T08:04:33.497Z,100094.38
2023-04-25T08:06:35.583Z,100096.78
2023-04-25T08:08:38.781Z,100100.19
2023-04-25T08:10:42.149Z,100104.22
2023-04-25T08:12:43.719Z,100117.09
2023-04-25T08:14:45.382Z,100117.00
2023-04-25T08:16:47.100Z,100120.41
2023-04-25T08:18:49.104Z,100118.81
2023-04-25T08:20:50.820Z,100124.94
2023-04-25T08:22:52.477Z,100123.53
2023-04-25T08:24:55.388Z,100133.44
2023-04-25T08:26:56.959Z,100126.31
2023-04-25T08:28:58.636Z,100134.81
2023-04-25T08:31:00.613Z,100137.13
2023-04-25T08:33:02.450Z,100135.84
2023-04-25T08:35:04.744Z,100143.13
2023-04-25T08:37:06.400Z,100139.84
2023-04-25T08:39:07.958Z,100141.75
2023-04-25T08:41:12.778Z,100142.66
2023-04-25T08:43:15.183Z,100151.94
2023-04-25T08:45:16.721Z,100150.16
2023-04-25T08:47:22.540Z,100150.56
2023-04-25T08:49:25.190Z,100153.97
2023-04-25T08:51:28.357Z,100158.34
2023-04-25T08:53:33.955Z,100166.69
2023-04-25T08:55:38.344Z,100165.47
2023-04-25T08:57:42.809Z,100162.94
2023-04-25T08:59:46.822Z,100162.03
2023-04-25T09:01:49.802Z,100160.66
2023-04-25T09:03:51.721Z,100169.13
2023-04-25T09:05:54.572Z,100162.72
2023-04-25T09:07:56.278Z,100170.50
2023-04-25T09:09:58.017Z,100168.13
2023-04-25T09:11:59.905Z,100182.75
2023-04-25T09:14:24.068Z,100176.81
2023-04-25T09:16:25.583Z,100184.84
2023-04-25T09:18:30.588Z,100189.53
2023-04-25T09:20:35.220Z,100188.94
2023-04-25T09:22:38.292Z,100191.47
2023-04-25T09:24:41.661Z,100192.25
2023-04-25T09:26:43.239Z,100198.53
2023-04-25T09:28:45.110Z,100199.53
2023-04-25T09:30:48.438Z,100194.47
2023-04-25T09:32:49.975Z,100205.03
2023-04-25T09:34:53.746Z,100204.88
2023-04-25T09:36:55.600Z,100212.72
2023-04-25T09:38:57.246Z,100213.81
2023-04-25T09:40:59.741Z,100211.47
2023-04-25T09:43:01.446Z,100217.47
2023-04-25T09:45:04.208Z,100221.28
2023-04-25T09:47:10.720Z,100219.34
2023-04-25T09:49:15.393Z,100224.53
2023-04-25T09:51:17.048Z,100226.63
2023-04-25T09:53:18.629Z,100229.59
2023-04-25T09:55:23.385Z,100235.97
2023-04-25T09:57:25.848Z,100238.81
2023-04-25T09:59:31.404Z,100236.72
2023-04-25T10:01:35.268Z,100239.69
2023-04-25T10:03:40.008Z,100245.47
2023-04-25T10:05:43.501Z,100242.63
2023-04-25T10:07:45.455Z,100241.41
2023-04-25T10:09:49.658Z,100245.78
2023-04-25T10:11:51.584Z,100247.88
2023-04-25T10:13:53.854Z,100251.19
2023-04-25T10:15:56.262Z,100246.47
2023-04-25T10:17:58.221Z,100244.09
2023-04-25T10:20:02.902Z,100252.13
2023-04-25T10:22:09.130Z,100248.91
2023-04-25T10:24:10.964Z,100246.50
2023-04-25T10:26:12.528Z,100248.13
2023-04-25T10:28:14.270Z,100249.28
2023-04-25T10:30:16.602Z,100250.41
2023-04-25T10:32:19.147Z,100247.81
2023-04-25T10:34:25.264Z,100242.25
2023-04-25T10:36:33.087Z,100244.31
2023-04-25T10:38:34.794Z,100256.25
2023-04-25T10:40:36.664Z,100256.53
2023-04-25T10:42:38.273Z,100252.19
2023-04-25T10:44:39.945Z,100253.59
2023-04-25T10:46:41.500Z,100250.41
2023-04-25T10:48:48.053Z,100254.72
2023-04-25T10:50:49.705Z,100254.22
2023-04-25T10:52:52.625Z,100254.22
2023-04-25T10:54:55.481Z,100261.44
2023-04-25T10:56:59.569Z,100258.41
2023-04-25T10:59:06.161Z,100257.63
2023-04-25T11:01:07.995Z,100263.03
2023-04-25T11:03:09.713Z,100258.53
2023-04-25T11:05:11.868Z,100265.38
2023-04-25T11:07:24.972Z,100271.88
2023-04-25T11:09:28.622Z,100270.00
2023-04-25T11:11:30.340Z,100275.53
2023-04-25T11:13:31.939Z,100264.22
2023-04-25T11:15:33.597Z,100272.03
2023-04-25T11:17:35.737Z,100274.56
2023-04-25T11:19:37.716Z,100275.06
2023-04-25T11:21:39.387Z,100272.13
2023-04-25T11:23:40.994Z,100277.28
2023-04-25T11:25:45.088Z,100277.56
2023-04-25T11:27:53.931Z,100276.88
2023-04-25T11:29:55.444Z,100281.31
2023-04-25T11:31:57.937Z,100284.03
2023-04-25T11:34:00.133Z,100271.59
2023-04-25T11:36:01.722Z,100287.25
2023-04-25T11:38:03.390Z,100278.44
2023-04-25T11:40:07.260Z,100286.06
2023-04-25T11:42:14.072Z,100289.94
2023-04-25T11:44:16.853Z,100293.75
2023-04-25T11:46:18.525Z,100289.94
2023-04-25T11:48:20.937Z,100290.94
2023-04-25T11:50:29.391Z,100297.94
2023-04-25T11:52:41.696Z,100284.66
2023-04-25T11:54:45.419Z,100300.56
2023-04-25T11:56:47.603Z,100303.63
2023-04-25T11:58:57.458Z,100300.31
2023-04-25T12:00:59.061Z,100302.09
2023-04-25T12:03:00.843Z,100303.06
2023-04-25T12:05:15.848Z,100299.38
2023-04-25T12:07:29.842Z,100303.69
2023-04-25T12:09:33.321Z,100297.78
2023-04-25T12:11:42.107Z,100304.41
2023-04-25T12:13:45.079Z,100305.00
2023-04-25T12:15:48.428Z,100304.00
2023-04-25T12:17:51.613Z,100309.84
2023-04-25T12:19:53.257Z,100313.47
2023-04-25T12:21:58.543Z,100309.59
2023-04-25T12:24:10.858Z,100319.63
2023-04-25T12:26:12.428Z,100311.41
2023-04-25T12:28:15.420Z,100313.78
2023-04-25T12:30:17.232Z,100315.81
2023-04-25T12:32:20.216Z,100317.91
2023-04-25T12:34:22.325Z,100318.72
2023-04-25T12:36:24.071Z,100316.50
2023-04-25T12:38:27.103Z,100319.53
2023-04-25T12:40:28.804Z,100319.72
2023-04-25T12:42:30.406Z,100314.09
2023-04-25T12:44:31.933Z,100317.19
2023-04-25T12:46:33.549Z,100322.28
2023-04-25T12:48:36.525Z,100317.25
2023-04-25T12:50:38.082Z,100317.94
2023-04-25T12:52:39.678Z,100318.38
2023-04-25T12:54:41.420Z,100325.22
2023-04-25T12:56:43.035Z,100329.38
2023-04-25T12:58:44.638Z,100324.47
2023-04-25T13:00:47.008Z,100320.50
2023-04-25T13:02:48.875Z,100320.69
2023-04-25T13:04:51.914Z,100331.00
2023-04-25T13:06:53.669Z,100332.78
2023-04-25T13:08:55.190Z,100332.88
2023-04-25T13:10:56.735Z,100320.69
2023-04-25T13:12:58.285Z,100338.56
2023-04-25T13:14:59.907Z,100332.44
2023-04-25T13:17:01.582Z,100335.81
2023-04-25T13:19:03.443Z,100329.59
2023-04-25T13:21:06.528Z,100331.50
2023-04-25T13:23:08.051Z,100327.81
2023-04-25T13:25:09.856Z,100325.09
2023-04-25T13:27:11.354Z,100320.28
2023-04-25T13:29:12.913Z,100329.72
2023-04-25T13:31:14.462Z,100327.97
2023-04-25T13:33:16.364Z,100333.81
2023-04-25T13:35:17.979Z,100329.63
2023-04-25T13:37:21.140Z,100334.44
2023-04-25T13:39:22.716Z,100326.13
2023-04-25T13:41:24.335Z,100337.63
2023-04-25T13:43:25.969Z,100340.00
2023-04-25T13:45:27.566Z,100346.91
2023-04-25T13:47:29.783Z,100338.75
2023-04-25T13:49:31.466Z,100344.47
2023-04-25T13:51:33.121Z,100342.25
2023-04-25T13:53:36.148Z,100342.59
2023-04-25T13:55:37.852Z,100346.31
2023-04-25T13:57:41.220Z,100342.00
2023-04-25T13:59:43.071Z,100344.25
2023-04-25T14:01:44.710Z,100347.56
2023-04-25T14:03:46.380Z,100346.16
2023-04-25T14:05:47.971Z,100346.16
2023-04-25T14:07:49.595Z,100348.38
2023-04-25T14:09:52.576Z,100350.78
2023-04-25T14:11:54.155Z,100350.44
2023-04-25T14:13:55.738Z,100355.50
2023-04-25T14:15:58.412Z,100356.28
2023-04-25T14:18:00.084Z,100356.75
2023-04-25T14:20:01.913Z,100362.63
2023-04-25T14:22:03.464Z,100351.28
2023-04-25T14:24:05.302Z,100356.59
2023-04-25T14:26:08.335Z,100351.66
2023-04-25T14:28:10.446Z,100354.00
2023-04-25T14:30:12.665Z,100356.25
2023-04-25T14:32:14.203Z,100354.19
2023-04-25T14:34:15.764Z,100358.97
2023-04-25T14:36:17.297Z,100357.19
2023-04-25T14:38:19.081Z,100357.66
2023-04-25T14:40:20.776Z,100358.88
2023-04-25T14:42:23.683Z,100363.84
2023-04-25T14:44:25.400Z,100361.31
2023-04-25T14:46:27.689Z,100366.25
2023-04-25T14:48:30.290Z,100368.81
2023-04-25T14:50:32.180Z,100369.75
2023-04-25T14:52:33.898Z,100373.72
2023-04-25T14:54:35.474Z,100372.56
2023-04-25T14:56:36.992Z,100370.66
2023-04-25T14:58:40.145Z,100378.00
2023-04-25T15:00:41.838Z,100377.66
2023-04-25T15:02:44.012Z,100380.00
2023-04-25T15:04:45.980Z,100374.50
2023-04-25T15:06:47.771Z,100382.19
2023-04-25T15:08:49.371Z,100383.91
2023-04-25T15:10:51.541Z,100382.81
2023-04-25T15:12:53.123Z,100382.31
2023-04-25T15:14:56.342Z,100369.84
2023-04-25T15:16:58.146Z,100374.47
2023-04-25T15:18:59.828Z,100374.47
2023-04-25T15:21:01.418Z,100375.59
2023-04-25T15:23:02.990Z,100370.66
2023-04-25T15:25:05.468Z,100372.56
2023-04-25T15:27:07.064Z,100370.84
2023-04-25T15:29:08.625Z,100374.03
2023-04-25T15:31:11.839Z,100374.03
2023-04-25T15:33:13.762Z,100380.59
2023-04-25T15:35:15.872Z,100379.75
2023-04-25T15:37:17.626Z,100386.31
2023-04-25T15:39:19.225Z,100386.31
2023-04-25T15:41:20.764Z,100390.44
2023-04-25T15:43:22.367Z,100388.66
2023-04-25T15:45:25.629Z,100391.06
2023-04-25T15:47:28.636Z,100396.97
2023-04-25T15:49:30.291Z,100398.09
2023-04-25T15:51:31.899Z,100395.88
2023-04-25T15:53:35.244Z,100399.19
2023-04-25T15:55:36.778Z,100403.50
2023-04-25T15:57:38.370Z,100401.72
2023-04-25T15:59:40.009Z,100398.84
2023-04-25T16:01:41.643Z,100405.19
2023-04-25T16:03:44.784Z,100402.47
2023-04-25T16:05:46.516Z,100401.75
2023-04-25T16:07:48.688Z,100403.63
2023-04-25T16:09:50.271Z,100400.69
2023-04-25T16:11:51.967Z,100408.03
2023-04-25T16:13:53.631Z,100406.94
2023-04-25T16:15:55.694Z,100402.81
2023-04-25T16:17:57.325Z,100400.41
2023-04-25T16:20:00.321Z,100398.81
2023-04-25T16:22:01.993Z,100397.69
2023-04-25T16:24:03.981Z,100406.13
2023-04-25T16:26:05.574Z,100411.34
2023-04-25T16:28:07.237Z,100410.84
2023-04-25T16:30:10.933Z,100415.81
2023-04-25T16:32:12.520Z,100416.91
2023-04-25T16:34:14.429Z,100414.03
2023-04-25T16:36:17.400Z,100420.34
2023-04-25T16:38:19.688Z,100412.81
2023-04-25T16:40:21.273Z,100417.75
2023-04-25T16:42:22.929Z,100419.16
2023-04-25T16:44:24.464Z,100424.09
2023-04-25T16:46:26.273Z,100420.09
2023-04-25T16:48:27.877Z,100419.59
2023-04-25T16:50:29.489Z,100418.47
2023-04-25T16:52:32.632Z,100417.38
2023-04-25T16:54:34.176Z,100423.69
2023-04-25T16:56:35.955Z,100411.25
2023-04-25T16:58:37.547Z,100414.56
2023-04-25T17:00:39.320Z,100414.75
2023-04-25T17:02:41.071Z,100415.69
2023-04-25T17:04:42.942Z,100428.91
2023-04-25T17:06:45.960Z,100421.09
2023-04-25T17:08:49.107Z,100427.13
2023-04-25T17:10:51.094Z,100431.25
2023-04-25T17:12:52.728Z,100431.84
2023-04-25T17:14:54.643Z,100439.69
2023-04-25T17:16:56.440Z,100436.16
2023-04-25T17:18:58.204Z,100448.59
2023-04-25T17:20:59.770Z,100451.31
2023-04-25T17:23:01.623Z,100446.00
2023-04-25T17:25:05.438Z,100450.03
2023-04-25T17:27:07.104Z,100455.44
2023-04-25T17:29:09.069Z,100458.75
2023-04-25T17:31:10.978Z,100458.56
2023-04-25T17:33:12.684Z,100465.16
2023-04-25T17:35:14.281Z,100463.09
2023-04-25T17:37:16.348Z,100464.38
2023-04-25T17:39:18.777Z,100464.69
2023-04-25T17:41:22.117Z,100464.97
2023-04-25T17:43:24.177Z,100470.50
2023-04-25T17:45:25.803Z,100466.47
2023-04-25T17:47:27.490Z,100473.00
2023-04-25T17:49:29.829Z,100474.41
2023-04-25T17:51:31.581Z,100479.22
2023-04-25T17:53:33.485Z,100483.13
2023-04-25T17:55:35.031Z,100487.16
2023-04-25T17:57:40.401Z,100487.44
2023-04-25T17:59:42.328Z,100480.72
2023-04-25T18:01:47.615Z,100495.38
2023-04-25T18:03:50.564Z,100486.22
2023-04-25T18:05:52.619Z,100485.94
2023-04-25T18:07:54.260Z,100495.94
2023-04-25T18:09:55.878Z,100490.66
2023-04-25T18:11:59.561Z,100503.69
2023-04-25T18:14:02.568Z,100501.56
2023-04-25T18:16:04.810Z,100510.56
2023-04-25T18:18:06.498Z,100508.97
2023-04-25T18:20:11.380Z,100509.47
2023-04-25T18:22:13.071Z,100508.97
2023-04-25T18:24:15.395Z,100520.09
2023-04-25T18:26:16.972Z,100526.59
2023-04-25T18:28:19.405Z,100524.78
2023-04-25T18:30:22.617Z,100522.44
2023-04-25T18:32:24.197Z,100525.94
2023-04-25T18:34:27.686Z,100532.56
2023-04-25T18:36:29.983Z,100538.28
2023-04-25T18:38:35.883Z,100533.75
2023-04-25T18:40:47.027Z,100534.34
2023-04-25T18:42:55.725Z,100542.16
2023-04-25T18:44:58.493Z,100543.25
2023-04-25T18:47:01.752Z,100543.25
2023-04-25T18:49:03.492Z,100551.38
2023-04-25T18:51:05.652Z,100550.56
2023-04-25T18:53:07.348Z,100548.13
2023-04-25T18:55:10.688Z,100553.84
2023-04-25T18:57:12.568Z,100549.03
2023-04-25T18:59:14.510Z,100559.38
2023-04-25T19:01:16.416Z,100561.84
2023-04-25T19:03:19.686Z,100565.16
2023-04-25T19:05:22.372Z,100568.72
2023-04-25T19:07:23.970Z,100574.41
2023-04-25T19:09:25.875Z,100575.25
2023-04-25T19:11:27.438Z,100577.94
2023-04-25T19:13:29.408Z,100577.13
2023-04-25T19:15:30.973Z,100576.34
2023-04-25T19:17:32.812Z,100570.09
2023-04-25T19:19:35.895Z,100571.81
2023-04-25T19:21:38.204Z,100573.69
2023-04-25T19:23:39.924Z,100575.09
2023-04-25T19:25:41.806Z,100575.66
2023-04-25T19:27:43.425Z,100591.09
2023-04-25T19:29:45.057Z,100585.44
2023-04-25T19:31:47.027Z,100583.56
2023-04-25T19:33:49.151Z,100587.06
2023-04-25T19:35:52.696Z,100586.03
2023-04-25T19:37:54.591Z,100588.22
2023-04-25T19:39:56.789Z,100591.50
2023-04-25T19:41:58.364Z,100598.53
2023-04-25T19:44:00.867Z,100593.69
2023-04-25T19:46:02.483Z,100595.16
2023-04-25T19:48:05.073Z,100599.75
2023-04-25T19:50:09.106Z,100598.72
2023-04-25T19:52:12.359Z,100602.28
2023-04-25T19:54:14.204Z,100598.28
2023-04-25T19:56:16.720Z,100602.38
2023-04-25T19:58:18.874Z,100601.06
2023-04-25T20:00:21.791Z,100602.06
2023-04-25T20:02:26.015Z,100605.34
2023-04-25T20:04:27.739Z,100600.22
2023-04-25T20:06:29.347Z,100609.44
2023-04-25T20:08:32.583Z,100610.81
2023-04-25T20:10:34.204Z,100611.69
2023-04-25T20:12:36.907Z,100619.78
2023-04-25T20:14:38.616Z,100624.38
2023-04-25T20:16:41.050Z,100624.44
2023-04-25T20:18:42.662Z,100629.09
2023-04-25T20:20:44.619Z,100631.59
2023-04-25T20:22:46.272Z,100627.25
2023-04-25T20:24:49.391Z,100628.63
2023-04-25T20:26:51.259Z,100620.56
2023-04-25T20:28:54.693Z,100618.47
2023-04-25T20:30:57.295Z,100614.94
2023-04-25T20:33:01.002Z,100617.38
2023-04-25T20:35:03.596Z,100614.84
2023-04-25T20:37:07.450Z,100622.88
2023-04-25T20:39:10.334Z,100623.22
2023-04-25T20:41:13.660Z,100626.25
2023-04-25T20:43:15.730Z,100637.63
2023-04-25T20:45:21.422Z,100634.09
2023-04-25T20:47:23.187Z,100635.38
2023-04-25T20:49:24.894Z,100629.97
2023-04-25T20:51:26.704Z,100628.13
2023-04-25T20:53:30.779Z,100637.84
2023-04-25T20:55:32.577Z,100635.72
2023-04-25T20:57:35.606Z,100635.19
2023-04-25T20:59:37.268Z,100636.88
2023-04-25T21:01:38.899Z,100633.63
2023-04-25T21:03:40.862Z,100635.06
2023-04-25T21:05:42.671Z,100632.13
2023-04-25T21:07:44.658Z,100631.28
2023-04-25T21:09:46.351Z,100638.31
2023-04-25T21:11:48.258Z,100637.00
2023-04-25T21:13:51.239Z,100636.22
2023-04-25T21:15:54.071Z,100643.53
2023-04-25T21:17:55.915Z,100650.88
2023-04-25T21:19:57.500Z,100647.31
2023-04-25T21:21:59.509Z,100660.31
2023-04-25T21:24:03.498Z,100651.97
2023-04-25T21:26:05.096Z,100656.53
2023-04-25T21:28:06.760Z,100652.22
2023-04-25T21:30:11.321Z,100648.69
2023-04-25T21:32:13.420Z,100649.72
2023-04-25T21:34:15.331Z,100645.38
2023-04-25T21:36:16.894Z,100643.22
2023-04-25T21:38:18.677Z,100648.84
2023-04-25T21:40:20.531Z,100647.78
2023-04-25T21:42:22.137Z,100646.47
2023-04-25T21:44:25.863Z,100653.59
2023-04-25T21:46:28.903Z,100656.88
2023-04-25T21:48:30.520Z,100656.38
2023-04-25T21:50:32.448Z,100655.75
2023-04-25T21:52:35.801Z,100662.19
2023-04-25T21:54:37.384Z,100667.66
2023-04-25T21:56:38.921Z,100671.44
2023-04-25T21:58:40.620Z,100669.25
2023-04-25T22:00:42.251Z,100678.34
2023-04-25T22:02:45.282Z,100674.66
2023-04-25T22:04:47.016Z,100677.47
2023-04-25T22:06:50.236Z,100679.66
2023-04-25T22:08:52.087Z,100687.22
2023-04-25T22:10:54.108Z,100685.09
2023-04-25T22:12:55.662Z,100681.63
2023-04-25T22:14:57.570Z,100683.28
2023-04-25T22:16:59.295Z,100681.13
2023-04-25T22:19:02.341Z,100691.16
2023-04-25T22:21:04.460Z,100695.22
2023-04-25T22:23:06.111Z,100696.84
2023-04-25T22:25:08.965Z,100697.63
2023-04-25T22:27:10.672Z,100693.38
2023-04-25T22:29:12.376Z,100698.22
2023-04-25T22:31:14.103Z,100702.56
2023-04-25T22:33:15.691Z,100702.84
2023-04-25T22:35:18.682Z,100702.88
2023-04-25T22:37:20.261Z,100704.19
2023-04-25T22:39:22.182Z,100705.25
2023-04-25T22:41:23.807Z,100702.59
2023-04-25T22:43:25.347Z,100703.38
2023-04-25T22:45:27.016Z,100711.22
2023-04-25T22:47:28.657Z,100709.91
2023-04-25T22:49:30.285Z,100716.13
2023-04-25T22:51:33.286Z,100716.38
2023-04-25T22:53:35.254Z,100719.84
2023-04-25T22:55:37.078Z,100716.38
2023-04-25T22:57:39.652Z,100718.78
2023-04-25T22:59:41.316Z,100717.94
2023-04-25T23:01:43.087Z,100715.53
2023-04-25T23:03:44.939Z,100717.16
2023-04-25T23:05:46.882Z,100722.56
2023-04-25T23:07:49.952Z,100732.06
2023-04-25T23:09:51.568Z,100722.09
2023-04-25T23:11:53.609Z,100728.50
2023-04-25T23:13:56.422Z,100719.28
2023-04-25T23:16:04.228Z,100723.91
2023-04-25T23:18:07.462Z,100725.28
2023-04-25T23:20:10.053Z,100732.56
2023-04-25T23:22:11.668Z,100719.84
2023-04-25T23:24:15.054Z,100720.44
2023-04-25T23:26:16.868Z,100720.97